Hauptseite
METAR-TAF:

METAR-TAF

Flughäfen :

Flughafen Dole-Jura

Dole, Frankreich

Breite: 47-02-34N, Länge: 005-26-06E, Höhe: 196 m

Beobachtung

Neuester Wetterbericht von vor 25 Minuten, um 04:00 UTC
Wind 3 kt aus Nord/Nordwest
Temperatur -1°C
Luftfeuchtigkeit 100%
Luftdruck 1008 hPa
Sichtweite: 8000 m

METAR: LFGJ 170400Z AUTO 34003KT 8000 NSC M01/M01 Q1008

Zeit: 05:25 (04:25 UTC)

Prognose

Neuester Wetterbericht von vor 14 Stunden und 22 Minuten, um 14:03 UTC
Gültige Prognose vom 16 um 15 UTC bis 16 um 24 UTC
Wind 4 kt aus Ost/Nordost
Sichtweite 10 km oder mehr
Leicht bewölkt in der Höhe von 2500 ft
Durchbrochene Bewölkung in der Höhe von 22000 ft
Übergehend zu
vom 16 um 19 UTC bis 16 um 21 UTC
Sichtweite: 5000 m
feuchter Dunst
Zeitweise
vom 16 um 21 UTC bis 16 um 24 UTC
Sichtweite: 0800 m
Nebel

TAF: LFGJ 161403Z 1615/1624 07004KT 9999 FEW025 BKN220 BECMG 1619/1621 5000 BR TEMPO 1621/1624 0800 FG

Wetterbeobachtungen und Prognosen von mehr als 4000 Flughäfen (METAR und TAF Bericht).

Die verfügbaren Stationen werden durch gelbe und rote Markierungen auf der Karte dargestellt.

Führen Sie die Maus auf sie, um den Namen der Station zu sehen.

Darauf klicken, um die Beobachtung von Wetterbeobachtungen und Prognosen zu sehen.

Um die Karte zu ändern : klicken Sie auf den grünen Tasten mit einem schwarzen Kreuz Zum Vergrößern, auf den grünen Button mit einem Gedankenstrich zu verkleinern, oder auf die grünen Pfeile für benachbarte Karten.


METAR-TAF: